sensor_id;sensor_type;location;lat;lon;timestamp;pressure;altitude;pressure_sealevel;temperature;humidity
11936;BME280;6027;48.576;9.180;2023-04-04T00:00:07;97594.00;;;1.23;73.08
11936;BME280;6027;48.576;9.180;2023-04-04T00:02:33;97595.59;;;1.13;72.45
11936;BME280;6027;48.576;9.180;2023-04-04T00:04:58;97590.78;;;1.07;73.18
11936;BME280;6027;48.576;9.180;2023-04-04T00:07:24;97596.41;;;1.01;73.19
11936;BME280;6027;48.576;9.180;2023-04-04T00:09:49;97584.75;;;0.94;73.41
11936;BME280;6027;48.576;9.180;2023-04-04T00:12:15;97582.66;;;0.99;73.30
11936;BME280;6027;48.576;9.180;2023-04-04T00:14:40;97577.97;;;0.91;73.85
11936;BME280;6027;48.576;9.180;2023-04-04T00:17:06;97579.31;;;0.97;72.75
11936;BME280;6027;48.576;9.180;2023-04-04T00:19:31;97576.59;;;0.98;72.87
11936;BME280;6027;48.576;9.180;2023-04-04T00:21:57;97579.44;;;0.95;72.05
11936;BME280;6027;48.576;9.180;2023-04-04T00:24:22;97572.44;;;0.83;72.56
11936;BME280;6027;48.576;9.180;2023-04-04T00:26:49;97570.47;;;0.87;71.29
11936;BME280;6027;48.576;9.180;2023-04-04T00:29:14;97568.81;;;0.86;72.10
11936;BME280;6027;48.576;9.180;2023-04-04T00:31:40;97568.38;;;0.92;71.94
11936;BME280;6027;48.576;9.180;2023-04-04T00:34:05;97568.91;;;0.84;70.29
11936;BME280;6027;48.576;9.180;2023-04-04T00:38:58;97567.88;;;0.87;69.46
11936;BME280;6027;48.576;9.180;2023-04-04T00:41:24;97558.06;;;0.78;69.27
11936;BME280;6027;48.576;9.180;2023-04-04T00:43:49;97558.50;;;0.72;69.36
11936;BME280;6027;48.576;9.180;2023-04-04T00:46:15;97554.13;;;0.72;70.67
11936;BME280;6027;48.576;9.180;2023-04-04T00:48:43;97556.19;;;0.80;68.79
11936;BME280;6027;48.576;9.180;2023-04-04T00:51:08;97555.16;;;0.69;68.69
11936;BME280;6027;48.576;9.180;2023-04-04T00:53:35;97552.84;;;0.65;69.71
11936;BME280;6027;48.576;9.180;2023-04-04T00:56:01;97551.41;;;0.74;69.26
11936;BME280;6027;48.576;9.180;2023-04-04T00:58:28;97545.56;;;0.70;68.49
11936;BME280;6027;48.576;9.180;2023-04-04T01:00:54;97550.38;;;0.76;68.55
11936;BME280;6027;48.576;9.180;2023-04-04T01:03:19;97545.53;;;0.83;66.76
11936;BME280;6027;48.576;9.180;2023-04-04T01:05:45;97530.25;;;0.65;66.08
11936;BME280;6027;48.576;9.180;2023-04-04T01:08:11;97542.09;;;0.82;66.02
11936;BME280;6027;48.576;9.180;2023-04-04T01:10:38;97542.22;;;0.81;65.25
11936;BME280;6027;48.576;9.180;2023-04-04T01:13:04;97539.09;;;0.76;64.18
11936;BME280;6027;48.576;9.180;2023-04-04T01:15:30;97542.31;;;0.79;64.30
11936;BME280;6027;48.576;9.180;2023-04-04T01:17:58;97540.66;;;0.78;63.54
11936;BME280;6027;48.576;9.180;2023-04-04T01:20:28;97536.72;;;0.73;64.01
11936;BME280;6027;48.576;9.180;2023-04-04T01:22:55;97532.44;;;0.72;63.87
11936;BME280;6027;48.576;9.180;2023-04-04T01:25:30;97535.34;;;0.67;64.70
11936;BME280;6027;48.576;9.180;2023-04-04T01:27:57;97531.38;;;0.61;63.81
11936;BME280;6027;48.576;9.180;2023-04-04T01:30:24;97533.03;;;0.62;63.75
11936;BME280;6027;48.576;9.180;2023-04-04T01:32:59;97533.56;;;0.80;64.66
11936;BME280;6027;48.576;9.180;2023-04-04T01:40:47;97529.00;;;0.71;65.06
11936;BME280;6027;48.576;9.180;2023-04-04T01:43:13;97528.88;;;0.60;63.74
11936;BME280;6027;48.576;9.180;2023-04-04T01:45:39;97524.28;;;0.63;64.75
11936;BME280;6027;48.576;9.180;2023-04-04T01:48:05;97522.81;;;0.59;64.87
11936;BME280;6027;48.576;9.180;2023-04-04T01:50:30;97522.81;;;0.59;65.25
11936;BME280;6027;48.576;9.180;2023-04-04T01:52:56;97517.41;;;0.62;65.21
11936;BME280;6027;48.576;9.180;2023-04-04T01:55:21;97520.84;;;0.63;66.19
11936;BME280;6027;48.576;9.180;2023-04-04T01:57:46;97521.59;;;0.65;66.21
11936;BME280;6027;48.576;9.180;2023-04-04T02:00:12;97527.09;;;0.60;66.99
11936;BME280;6027;48.576;9.180;2023-04-04T02:02:39;97523.16;;;0.55;67.24
11936;BME280;6027;48.576;9.180;2023-04-04T02:05:05;97528.69;;;0.50;67.24
11936;BME280;6027;48.576;9.180;2023-04-04T02:07:31;97531.78;;;0.43;68.05
11936;BME280;6027;48.576;9.180;2023-04-04T02:09:56;97531.69;;;0.44;69.06
11936;BME280;6027;48.576;9.180;2023-04-04T02:12:22;97530.56;;;0.48;67.86
11936;BME280;6027;48.576;9.180;2023-04-04T02:14:48;97533.56;;;0.29;67.16
11936;BME280;6027;48.576;9.180;2023-04-04T02:17:13;97532.38;;;0.21;68.56
11936;BME280;6027;48.576;9.180;2023-04-04T02:19:39;97533.03;;;0.24;68.50
11936;BME280;6027;48.576;9.180;2023-04-04T02:22:05;97532.81;;;0.27;67.34
11936;BME280;6027;48.576;9.180;2023-04-04T02:24:30;97530.63;;;0.21;67.76
11936;BME280;6027;48.576;9.180;2023-04-04T02:26:56;97527.19;;;0.21;67.50
11936;BME280;6027;48.576;9.180;2023-04-04T02:29:21;97522.59;;;0.24;67.58
11936;BME280;6027;48.576;9.180;2023-04-04T02:31:47;97527.09;;;0.22;68.58
11936;BME280;6027;48.576;9.180;2023-04-04T02:34:13;97526.78;;;0.14;68.90
11936;BME280;6027;48.576;9.180;2023-04-04T02:36:38;97525.66;;;0.18;68.45
11936;BME280;6027;48.576;9.180;2023-04-04T02:39:03;97510.72;;;0.08;69.61
11936;BME280;6027;48.576;9.180;2023-04-04T02:41:30;97527.72;;;0.13;69.36
11936;BME280;6027;48.576;9.180;2023-04-04T02:43:55;97527.47;;;0.04;67.78
11936;BME280;6027;48.576;9.180;2023-04-04T02:46:21;97521.75;;;0.11;68.54
11936;BME280;6027;48.576;9.180;2023-04-04T02:48:46;97521.97;;;0.08;68.47
11936;BME280;6027;48.576;9.180;2023-04-04T02:51:12;97521.34;;;0.05;68.37
11936;BME280;6027;48.576;9.180;2023-04-04T02:53:37;97513.53;;;0.05;69.50
11936;BME280;6027;48.576;9.180;2023-04-04T02:56:03;97515.09;;;0.07;68.64
11936;BME280;6027;48.576;9.180;2023-04-04T02:58:30;97504.69;;;0.07;68.27
11936;BME280;6027;48.576;9.180;2023-04-04T03:00:55;97521.94;;;-0.05;67.78
11936;BME280;6027;48.576;9.180;2023-04-04T03:03:21;97518.06;;;-0.12;68.28
11936;BME280;6027;48.576;9.180;2023-04-04T03:05:46;97513.69;;;-0.24;69.12
11936;BME280;6027;48.576;9.180;2023-04-04T03:08:14;97515.16;;;-0.20;69.29
11936;BME280;6027;48.576;9.180;2023-04-04T03:10:39;97513.13;;;-0.29;70.02
11936;BME280;6027;48.576;9.180;2023-04-04T03:13:05;97513.88;;;-0.27;70.06
11936;BME280;6027;48.576;9.180;2023-04-04T03:15:31;97507.09;;;-0.29;70.47
11936;BME280;6027;48.576;9.180;2023-04-04T03:17:57;97517.91;;;-0.36;70.20
11936;BME280;6027;48.576;9.180;2023-04-04T03:20:23;97504.88;;;-0.36;70.02
11936;BME280;6027;48.576;9.180;2023-04-04T03:22:49;97513.72;;;-0.38;71.61
11936;BME280;6027;48.576;9.180;2023-04-04T03:25:14;97505.59;;;-0.46;70.78
11936;BME280;6027;48.576;9.180;2023-04-04T03:27:40;97511.28;;;-0.54;71.33
11936;BME280;6027;48.576;9.180;2023-04-04T03:30:07;97518.16;;;-0.53;71.57
11936;BME280;6027;48.576;9.180;2023-04-04T03:32:32;97509.50;;;-0.53;71.56
11936;BME280;6027;48.576;9.180;2023-04-04T03:34:58;97510.84;;;-0.60;71.49
11936;BME280;6027;48.576;9.180;2023-04-04T03:37:23;97517.13;;;-0.50;71.29
11936;BME280;6027;48.576;9.180;2023-04-04T03:39:49;97511.19;;;-0.52;71.98
11936;BME280;6027;48.576;9.180;2023-04-04T03:42:14;97505.97;;;-0.52;71.63
11936;BME280;6027;48.576;9.180;2023-04-04T03:44:40;97503.88;;;-0.60;72.07
11936;BME280;6027;48.576;9.180;2023-04-04T03:47:06;97507.69;;;-0.65;72.18
11936;BME280;6027;48.576;9.180;2023-04-04T03:49:32;97509.19;;;-0.76;72.55
11936;BME280;6027;48.576;9.180;2023-04-04T03:51:58;97514.22;;;-0.73;72.87
11936;BME280;6027;48.576;9.180;2023-04-04T03:54:23;97509.78;;;-0.85;73.91
11936;BME280;6027;48.576;9.180;2023-04-04T03:56:52;97502.75;;;-0.83;73.69
11936;BME280;6027;48.576;9.180;2023-04-04T03:59:17;97513.19;;;-0.70;74.62
11936;BME280;6027;48.576;9.180;2023-04-04T04:01:43;97509.00;;;-0.58;74.86
11936;BME280;6027;48.576;9.180;2023-04-04T04:04:08;97505.84;;;-0.63;74.70
11936;BME280;6027;48.576;9.180;2023-04-04T04:06:34;97506.59;;;-0.76;74.49
11936;BME280;6027;48.576;9.180;2023-04-04T04:08:59;97519.22;;;-0.70;74.08
11936;BME280;6027;48.576;9.180;2023-04-04T04:11:25;97514.72;;;-0.80;74.42
11936;BME280;6027;48.576;9.180;2023-04-04T04:13:50;97512.13;;;-0.80;74.39
11936;BME280;6027;48.576;9.180;2023-04-04T04:18:44;97508.88;;;-0.84;74.92
11936;BME280;6027;48.576;9.180;2023-04-04T04:21:09;97509.97;;;-0.88;75.78
11936;BME280;6027;48.576;9.180;2023-04-04T04:23:35;97516.00;;;-0.87;75.41
11936;BME280;6027;48.576;9.180;2023-04-04T04:26:00;97511.28;;;-0.81;75.51
11936;BME280;6027;48.576;9.180;2023-04-04T04:28:26;97511.94;;;-0.91;76.32
11936;BME280;6027;48.576;9.180;2023-04-04T04:30:51;97510.91;;;-0.89;76.21
11936;BME280;6027;48.576;9.180;2023-04-04T04:33:17;97523.72;;;-0.86;75.23
11936;BME280;6027;48.576;9.180;2023-04-04T04:35:43;97515.00;;;-0.85;75.89
11936;BME280;6027;48.576;9.180;2023-04-04T04:38:09;97517.41;;;-0.82;76.47
11936;BME280;6027;48.576;9.180;2023-04-04T04:40:36;97506.06;;;-0.81;75.98
11936;BME280;6027;48.576;9.180;2023-04-04T04:43:01;97519.81;;;-0.79;75.27
11936;BME280;6027;48.576;9.180;2023-04-04T04:45:27;97521.81;;;-0.70;75.78
11936;BME280;6027;48.576;9.180;2023-04-04T04:47:53;97516.81;;;-0.73;75.70
11936;BME280;6027;48.576;9.180;2023-04-04T04:50:18;97524.47;;;-0.84;75.54
11936;BME280;6027;48.576;9.180;2023-04-04T04:52:44;97519.81;;;-0.79;75.03
11936;BME280;6027;48.576;9.180;2023-04-04T04:55:10;97525.28;;;-0.83;75.55
11936;BME280;6027;48.576;9.180;2023-04-04T04:57:36;97525.19;;;-0.82;75.88
11936;BME280;6027;48.576;9.180;2023-04-04T05:00:03;97526.13;;;-0.83;75.56
11936;BME280;6027;48.576;9.180;2023-04-04T05:02:29;97533.00;;;-0.82;76.08
11936;BME280;6027;48.576;9.180;2023-04-04T05:04:55;97531.78;;;-0.90;75.83
11936;BME280;6027;48.576;9.180;2023-04-04T05:07:21;97522.97;;;-0.88;76.62
11936;BME280;6027;48.576;9.180;2023-04-04T05:09:46;97530.22;;;-0.79;75.75
11936;BME280;6027;48.576;9.180;2023-04-04T05:12:12;97531.31;;;-0.83;75.99
11936;BME280;6027;48.576;9.180;2023-04-04T05:14:37;97532.06;;;-0.81;75.37
11936;BME280;6027;48.576;9.180;2023-04-04T05:17:03;97532.72;;;-0.77;75.29
11936;BME280;6027;48.576;9.180;2023-04-04T05:19:28;97529.56;;;-0.82;76.01
11936;BME280;6027;48.576;9.180;2023-04-04T05:21:53;97528.47;;;-0.92;76.48
11936;BME280;6027;48.576;9.180;2023-04-04T05:24:19;97533.75;;;-0.94;77.11
11936;BME280;6027;48.576;9.180;2023-04-04T05:26:47;97535.25;;;-1.04;76.88
11936;BME280;6027;48.576;9.180;2023-04-04T05:29:12;97541.09;;;-1.00;77.19
11936;BME280;6027;48.576;9.180;2023-04-04T05:31:38;97537.50;;;-0.98;77.21
11936;BME280;6027;48.576;9.180;2023-04-04T05:34:03;97541.91;;;-0.86;78.02
11936;BME280;6027;48.576;9.180;2023-04-04T05:36:35;97541.81;;;-0.84;76.99
11936;BME280;6027;48.576;9.180;2023-04-04T05:39:04;97518.56;;;-1.00;76.49
11936;BME280;6027;48.576;9.180;2023-04-04T05:41:30;97539.31;;;-0.86;76.97
11936;BME280;6027;48.576;9.180;2023-04-04T05:43:56;97526.44;;;-1.01;77.47
11936;BME280;6027;48.576;9.180;2023-04-04T05:46:22;97544.88;;;-0.92;77.72
11936;BME280;6027;48.576;9.180;2023-04-04T05:48:47;97536.59;;;-0.70;77.35
11936;BME280;6027;48.576;9.180;2023-04-04T05:51:14;97545.41;;;-0.73;76.37
11936;BME280;6027;48.576;9.180;2023-04-04T05:53:40;97536.81;;;-0.87;76.41
11936;BME280;6027;48.576;9.180;2023-04-04T05:56:05;97531.06;;;-0.78;75.96
11936;BME280;6027;48.576;9.180;2023-04-04T05:58:31;97544.47;;;-0.72;75.32
11936;BME280;6027;48.576;9.180;2023-04-04T06:00:56;97544.84;;;-0.63;75.92
11936;BME280;6027;48.576;9.180;2023-04-04T06:03:22;97543.56;;;-0.71;75.83
11936;BME280;6027;48.576;9.180;2023-04-04T06:05:51;97540.41;;;-0.76;76.42
11936;BME280;6027;48.576;9.180;2023-04-04T06:08:17;97547.78;;;-0.55;76.29
11936;BME280;6027;48.576;9.180;2023-04-04T06:10:42;97540.19;;;-0.58;76.31
11936;BME280;6027;48.576;9.180;2023-04-04T06:13:08;97550.19;;;-0.52;75.33
11936;BME280;6027;48.576;9.180;2023-04-04T06:15:33;97548.19;;;-0.61;74.72
11936;BME280;6027;48.576;9.180;2023-04-04T06:17:58;97555.28;;;-0.51;75.14
11936;BME280;6027;48.576;9.180;2023-04-04T06:20:24;97550.97;;;-0.38;74.83
11936;BME280;6027;48.576;9.180;2023-04-04T06:22:50;97544.41;;;-0.43;74.88
11936;BME280;6027;48.576;9.180;2023-04-04T06:25:15;97552.53;;;-0.35;74.30
11936;BME280;6027;48.576;9.180;2023-04-04T06:27:41;97541.53;;;-0.39;74.78
11936;BME280;6027;48.576;9.180;2023-04-04T06:30:07;97542.13;;;-0.35;72.98
11936;BME280;6027;48.576;9.180;2023-04-04T06:32:32;97539.72;;;-0.38;74.24
11936;BME280;6027;48.576;9.180;2023-04-04T06:34:59;97540.72;;;-0.26;73.65
11936;BME280;6027;48.576;9.180;2023-04-04T06:37:24;97545.66;;;-0.22;73.52
11936;BME280;6027;48.576;9.180;2023-04-04T06:39:49;97543.56;;;-0.17;73.72
11936;BME280;6027;48.576;9.180;2023-04-04T06:42:15;97543.56;;;-0.17;72.63
11936;BME280;6027;48.576;9.180;2023-04-04T06:44:41;97545.97;;;-0.14;71.81
11936;BME280;6027;48.576;9.180;2023-04-04T06:47:07;97535.91;;;-0.06;69.46
11936;BME280;6027;48.576;9.180;2023-04-04T06:49:32;97539.88;;;0.00;68.83
11936;BME280;6027;48.576;9.180;2023-04-04T06:51:59;97543.19;;;0.02;66.80
11936;BME280;6027;48.576;9.180;2023-04-04T06:54:24;97540.28;;;0.07;66.69
11936;BME280;6027;48.576;9.180;2023-04-04T06:56:50;97541.31;;;0.04;66.65
11936;BME280;6027;48.576;9.180;2023-04-04T06:59:17;97537.50;;;0.10;66.04
11936;BME280;6027;48.576;9.180;2023-04-04T07:01:43;97542.41;;;0.14;65.30
11936;BME280;6027;48.576;9.180;2023-04-04T07:04:08;97528.13;;;0.20;64.29
11936;BME280;6027;48.576;9.180;2023-04-04T07:06:33;97533.22;;;0.21;64.79
11936;BME280;6027;48.576;9.180;2023-04-04T07:08:59;97528.94;;;0.20;64.76
11936;BME280;6027;48.576;9.180;2023-04-04T07:11:24;97527.81;;;0.24;63.36
11936;BME280;6027;48.576;9.180;2023-04-04T07:13:51;97532.19;;;0.24;64.15
11936;BME280;6027;48.576;9.180;2023-04-04T07:16:16;97530.97;;;0.29;64.77
11936;BME280;6027;48.576;9.180;2023-04-04T07:18:42;97533.47;;;0.44;62.80
11936;BME280;6027;48.576;9.180;2023-04-04T07:21:08;97538.78;;;0.42;63.50
11936;BME280;6027;48.576;9.180;2023-04-04T07:23:33;97539.50;;;0.44;63.89
11936;BME280;6027;48.576;9.180;2023-04-04T07:26:00;97537.84;;;0.56;62.53
11936;BME280;6027;48.576;9.180;2023-04-04T07:28:25;97540.56;;;0.67;62.70
11936;BME280;6027;48.576;9.180;2023-04-04T07:30:51;97533.16;;;0.74;62.63
11936;BME280;6027;48.576;9.180;2023-04-04T07:33:16;97545.34;;;0.86;61.87
11936;BME280;6027;48.576;9.180;2023-04-04T07:35:42;97539.59;;;0.81;61.33
11936;BME280;6027;48.576;9.180;2023-04-04T07:38:07;97538.47;;;0.85;61.38
11936;BME280;6027;48.576;9.180;2023-04-04T07:40:33;97537.00;;;0.93;60.36
11936;BME280;6027;48.576;9.180;2023-04-04T07:42:59;97538.94;;;1.02;61.13
11936;BME280;6027;48.576;9.180;2023-04-04T07:45:24;97536.03;;;1.07;61.64
11936;BME280;6027;48.576;9.180;2023-04-04T07:47:49;97542.03;;;1.20;59.47
11936;BME280;6027;48.576;9.180;2023-04-04T07:50:15;97535.56;;;1.26;59.37
11936;BME280;6027;48.576;9.180;2023-04-04T07:55:08;97539.22;;;1.23;60.03
11936;BME280;6027;48.576;9.180;2023-04-04T07:57:38;97532.28;;;1.35;59.65
11936;BME280;6027;48.576;9.180;2023-04-04T08:00:06;97538.44;;;1.47;60.37
11936;BME280;6027;48.576;9.180;2023-04-04T08:02:35;97534.00;;;1.60;60.97
11936;BME280;6027;48.576;9.180;2023-04-04T08:05:01;97537.88;;;1.78;59.90
11936;BME280;6027;48.576;9.180;2023-04-04T08:07:26;97535.69;;;1.96;59.02
11936;BME280;6027;48.576;9.180;2023-04-04T08:09:52;97538.03;;;2.12;58.11
11936;BME280;6027;48.576;9.180;2023-04-04T08:12:17;97537.13;;;2.24;57.90
11936;BME280;6027;48.576;9.180;2023-04-04T08:14:43;97535.91;;;2.17;56.10
11936;BME280;6027;48.576;9.180;2023-04-04T08:17:08;97530.25;;;2.34;57.13
11936;BME280;6027;48.576;9.180;2023-04-04T08:19:34;97534.69;;;2.45;57.00
11936;BME280;6027;48.576;9.180;2023-04-04T08:21:59;97544.31;;;2.55;56.11
11936;BME280;6027;48.576;9.180;2023-04-04T08:24:25;97531.50;;;2.63;56.42
11936;BME280;6027;48.576;9.180;2023-04-04T08:26:51;97532.44;;;2.73;56.80
11936;BME280;6027;48.576;9.180;2023-04-04T08:29:16;97532.47;;;2.85;54.41
11936;BME280;6027;48.576;9.180;2023-04-04T08:31:42;97536.03;;;2.84;54.77
11936;BME280;6027;48.576;9.180;2023-04-04T08:34:07;97536.50;;;2.77;54.92
11936;BME280;6027;48.576;9.180;2023-04-04T08:36:33;97530.31;;;2.90;55.48
11936;BME280;6027;48.576;9.180;2023-04-04T08:38:59;97534.84;;;3.21;56.36
11936;BME280;6027;48.576;9.180;2023-04-04T08:41:26;97527.00;;;3.21;53.15
11936;BME280;6027;48.576;9.180;2023-04-04T08:43:53;97525.75;;;3.47;54.45
11936;BME280;6027;48.576;9.180;2023-04-04T08:46:23;97524.06;;;3.58;52.16
11936;BME280;6027;48.576;9.180;2023-04-04T08:48:50;97523.50;;;3.86;53.91
11936;BME280;6027;48.576;9.180;2023-04-04T08:51:19;97541.03;;;4.06;53.11
11936;BME280;6027;48.576;9.180;2023-04-04T08:53:44;97532.94;;;4.09;49.87
11936;BME280;6027;48.576;9.180;2023-04-04T08:56:10;97526.13;;;4.18;50.83
11936;BME280;6027;48.576;9.180;2023-04-04T08:58:36;97532.94;;;4.09;49.28
11936;BME280;6027;48.576;9.180;2023-04-04T09:01:05;97518.03;;;4.10;50.86
11936;BME280;6027;48.576;9.180;2023-04-04T09:03:32;97536.09;;;4.45;50.88
11936;BME280;6027;48.576;9.180;2023-04-04T09:06:00;97527.66;;;4.41;49.75
11936;BME280;6027;48.576;9.180;2023-04-04T09:08:27;97527.63;;;4.62;50.40
11936;BME280;6027;48.576;9.180;2023-04-04T09:10:53;97531.78;;;4.85;50.33
11936;BME280;6027;48.576;9.180;2023-04-04T09:13:19;97538.16;;;4.93;48.89
11936;BME280;6027;48.576;9.180;2023-04-04T09:15:47;97534.22;;;5.08;50.63
11936;BME280;6027;48.576;9.180;2023-04-04T09:18:13;97536.22;;;5.25;49.18
11936;BME280;6027;48.576;9.180;2023-04-04T09:20:43;97535.78;;;5.20;48.74
11936;BME280;6027;48.576;9.180;2023-04-04T09:23:19;97534.34;;;5.06;47.30
11936;BME280;6027;48.576;9.180;2023-04-04T09:25:46;97532.09;;;4.92;48.11
11936;BME280;6027;48.576;9.180;2023-04-04T09:28:16;97530.69;;;4.88;47.48
11936;BME280;6027;48.576;9.180;2023-04-04T09:30:42;97534.66;;;4.82;48.28
11936;BME280;6027;48.576;9.180;2023-04-04T09:33:11;97533.13;;;5.10;47.81
11936;BME280;6027;48.576;9.180;2023-04-04T09:35:38;97534.88;;;5.40;47.71
11936;BME280;6027;48.576;9.180;2023-04-04T09:38:06;97532.13;;;5.32;46.28
11936;BME280;6027;48.576;9.180;2023-04-04T09:40:36;97536.16;;;5.46;50.17
11936;BME280;6027;48.576;9.180;2023-04-04T09:43:03;97541.09;;;5.39;47.56
11936;BME280;6027;48.576;9.180;2023-04-04T09:45:33;97534.56;;;5.24;46.68
11936;BME280;6027;48.576;9.180;2023-04-04T09:48:00;97537.44;;;5.21;45.88
11936;BME280;6027;48.576;9.180;2023-04-04T09:50:26;97541.59;;;5.24;47.03
11936;BME280;6027;48.576;9.180;2023-04-04T09:52:56;97540.88;;;5.12;47.18
11936;BME280;6027;48.576;9.180;2023-04-04T09:55:32;97544.38;;;5.22;47.22
11936;BME280;6027;48.576;9.180;2023-04-04T09:57:58;97539.09;;;5.12;47.30
11936;BME280;6027;48.576;9.180;2023-04-04T10:00:28;97540.19;;;5.10;46.48
11936;BME280;6027;48.576;9.180;2023-04-04T10:02:55;97543.16;;;4.96;46.19
11936;BME280;6027;48.576;9.180;2023-04-04T10:05:22;97539.09;;;5.12;46.39
11936;BME280;6027;48.576;9.180;2023-04-04T10:07:48;97539.28;;;5.30;47.75
11936;BME280;6027;48.576;9.180;2023-04-04T10:10:14;97534.81;;;5.21;45.30
11936;BME280;6027;48.576;9.180;2023-04-04T10:12:40;97529.50;;;5.42;48.18
11936;BME280;6027;48.576;9.180;2023-04-04T10:15:09;97533.53;;;5.36;47.12
11936;BME280;6027;48.576;9.180;2023-04-04T10:17:37;97542.75;;;5.40;45.86
11936;BME280;6027;48.576;9.180;2023-04-04T10:20:04;97538.47;;;5.30;45.42
11936;BME280;6027;48.576;9.180;2023-04-04T10:22:37;97533.06;;;5.31;46.52
11936;BME280;6027;48.576;9.180;2023-04-04T10:25:06;97531.09;;;5.14;45.88
11936;BME280;6027;48.576;9.180;2023-04-04T10:27:32;97527.50;;;5.15;46.07
11936;BME280;6027;48.576;9.180;2023-04-04T10:30:01;97528.75;;;5.20;45.17
11936;BME280;6027;48.576;9.180;2023-04-04T10:35:07;97523.94;;;5.26;46.08
11936;BME280;6027;48.576;9.180;2023-04-04T10:37:42;97531.22;;;5.12;45.77
11936;BME280;6027;48.576;9.180;2023-04-04T10:40:09;97521.84;;;5.19;47.02
11936;BME280;6027;48.576;9.180;2023-04-04T10:42:40;97527.84;;;5.31;46.72
11936;BME280;6027;48.576;9.180;2023-04-04T10:45:08;97525.34;;;5.30;46.60
11936;BME280;6027;48.576;9.180;2023-04-04T10:47:38;97523.44;;;5.41;45.29
11936;BME280;6027;48.576;9.180;2023-04-04T10:50:04;97527.00;;;5.40;45.99
11936;BME280;6027;48.576;9.180;2023-04-04T10:52:35;97514.19;;;5.47;46.91
11936;BME280;6027;48.576;9.180;2023-04-04T10:55:07;97523.16;;;5.44;46.45
11936;BME280;6027;48.576;9.180;2023-04-04T10:57:35;97516.16;;;5.54;47.30
11936;BME280;6027;48.576;9.180;2023-04-04T11:00:06;97517.13;;;5.63;44.77
11936;BME280;6027;48.576;9.180;2023-04-04T11:05:40;97510.78;;;5.85;44.28
11936;BME280;6027;48.576;9.180;2023-04-04T11:08:09;97507.75;;;5.70;45.69
11936;BME280;6027;48.576;9.180;2023-04-04T11:10:42;97503.31;;;5.71;43.74
11936;BME280;6027;48.576;9.180;2023-04-04T11:16:00;97493.34;;;5.55;44.70
11936;BME280;6027;48.576;9.180;2023-04-04T11:20:54;97493.75;;;5.60;44.63
11936;BME280;6027;48.576;9.180;2023-04-04T11:23:20;97502.31;;;5.62;44.83
11936;BME280;6027;48.576;9.180;2023-04-04T11:25:56;97491.53;;;5.55;44.09
11936;BME280;6027;48.576;9.180;2023-04-04T11:33:25;97490.59;;;5.76;45.04
11936;BME280;6027;48.576;9.180;2023-04-04T11:35:57;97487.88;;;6.06;44.65
11936;BME280;6027;48.576;9.180;2023-04-04T11:38:25;97491.19;;;6.08;43.61
11936;BME280;6027;48.576;9.180;2023-04-04T11:40:53;97489.25;;;5.91;42.73
11936;BME280;6027;48.576;9.180;2023-04-04T11:43:19;97488.38;;;5.81;42.94
11936;BME280;6027;48.576;9.180;2023-04-04T11:45:45;97488.94;;;5.84;44.27
11936;BME280;6027;48.576;9.180;2023-04-04T11:48:13;97487.53;;;5.80;43.81
11936;BME280;6027;48.576;9.180;2023-04-04T11:50:40;97489.69;;;5.96;43.99
11936;BME280;6027;48.576;9.180;2023-04-04T11:53:08;97482.19;;;6.01;44.22
11936;BME280;6027;48.576;9.180;2023-04-04T11:55:41;97484.69;;;6.03;44.05
11936;BME280;6027;48.576;9.180;2023-04-04T11:58:11;97481.22;;;6.02;44.36
11936;BME280;6027;48.576;9.180;2023-04-04T12:00:37;97473.47;;;6.01;43.90
11936;BME280;6027;48.576;9.180;2023-04-04T12:03:08;97483.56;;;6.24;45.03
11936;BME280;6027;48.576;9.180;2023-04-04T12:05:45;97487.53;;;6.48;44.80
11936;BME280;6027;48.576;9.180;2023-04-04T12:08:11;97482.03;;;6.32;43.09
11936;BME280;6027;48.576;9.180;2023-04-04T12:10:38;97482.19;;;6.30;42.97
11936;BME280;6027;48.576;9.180;2023-04-04T12:13:07;97479.97;;;6.16;42.83
11936;BME280;6027;48.576;9.180;2023-04-04T12:15:36;97475.25;;;6.19;42.34
11936;BME280;6027;48.576;9.180;2023-04-04T12:18:05;97479.69;;;6.19;42.67
11936;BME280;6027;48.576;9.180;2023-04-04T12:20:31;97477.88;;;6.29;43.26
11936;BME280;6027;48.576;9.180;2023-04-04T12:22:57;97473.47;;;6.30;43.78
11936;BME280;6027;48.576;9.180;2023-04-04T12:25:23;97468.56;;;6.54;44.12
11936;BME280;6027;48.576;9.180;2023-04-04T12:27:50;97468.66;;;6.72;43.19
11936;BME280;6027;48.576;9.180;2023-04-04T12:30:17;97462.84;;;6.58;43.80
11936;BME280;6027;48.576;9.180;2023-04-04T12:32:44;97468.72;;;6.43;42.50
11936;BME280;6027;48.576;9.180;2023-04-04T12:35:18;97472.22;;;6.24;42.50
11936;BME280;6027;48.576;9.180;2023-04-04T12:38:15;97472.63;;;6.19;41.88
11936;BME280;6027;48.576;9.180;2023-04-04T12:40:40;97468.56;;;6.44;42.47
11936;BME280;6027;48.576;9.180;2023-04-04T12:43:07;97462.06;;;6.48;43.27
11936;BME280;6027;48.576;9.180;2023-04-04T12:45:39;97441.59;;;6.42;43.89
11936;BME280;6027;48.576;9.180;2023-04-04T12:48:13;97457.44;;;6.70;42.13
11936;BME280;6027;48.576;9.180;2023-04-04T12:50:54;97455.19;;;6.75;43.16
11936;BME280;6027;48.576;9.180;2023-04-04T12:53:21;97458.56;;;6.57;42.83
11936;BME280;6027;48.576;9.180;2023-04-04T12:55:48;97458.22;;;6.33;41.84
11936;BME280;6027;48.576;9.180;2023-04-04T12:58:16;97448.22;;;6.37;42.64
11936;BME280;6027;48.576;9.180;2023-04-04T13:00:42;97446.84;;;6.52;43.18
11936;BME280;6027;48.576;9.180;2023-04-04T13:03:08;97444.06;;;6.53;42.77
11936;BME280;6027;48.576;9.180;2023-04-04T13:05:34;97446.78;;;6.71;42.95
11936;BME280;6027;48.576;9.180;2023-04-04T13:08:08;97442.84;;;6.75;41.39
11936;BME280;6027;48.576;9.180;2023-04-04T13:13:37;97437.44;;;6.77;42.02
11936;BME280;6027;48.576;9.180;2023-04-04T13:16:11;97438.25;;;6.87;45.70
11936;BME280;6027;48.576;9.180;2023-04-04T13:18:38;97432.25;;;6.94;43.88
11936;BME280;6027;48.576;9.180;2023-04-04T13:21:06;97436.44;;;7.15;42.63
11936;BME280;6027;48.576;9.180;2023-04-04T13:23:34;97437.78;;;7.01;41.51
11936;BME280;6027;48.576;9.180;2023-04-04T13:26:00;97429.28;;;7.07;42.62
11936;BME280;6027;48.576;9.180;2023-04-04T13:28:25;97420.47;;;6.99;42.09
11936;BME280;6027;48.576;9.180;2023-04-04T13:30:54;97419.78;;;6.97;42.44
11936;BME280;6027;48.576;9.180;2023-04-04T13:33:21;97422.13;;;7.00;41.23
11936;BME280;6027;48.576;9.180;2023-04-04T13:35:47;97421.88;;;6.93;41.28
11936;BME280;6027;48.576;9.180;2023-04-04T13:38:14;97417.34;;;6.85;41.70
11936;BME280;6027;48.576;9.180;2023-04-04T13:40:39;97413.78;;;6.77;41.55
11936;BME280;6027;48.576;9.180;2023-04-04T13:43:05;97408.47;;;6.86;41.07
11936;BME280;6027;48.576;9.180;2023-04-04T13:45:33;97411.72;;;6.98;41.12
11936;BME280;6027;48.576;9.180;2023-04-04T13:48:00;97407.84;;;7.02;42.10